Home > Products > Valid Products > MTR

000
SAUS45 KLKN 230954
MTRP68
METAR KP68 230953Z AUTO 20003KT 07/M08 A3014 RMK AO1 SLP155
T00671078





000
SAUS45 KLKN 230854
MTRP68
METAR KP68 230853Z AUTO 18005KT 08/M08 A3016 RMK AO1 SLP159
T00781078 58000





000
SAUS45 KLKN 230754
MTRP68
METAR KP68 230753Z AUTO 17003KT 07/M08 A3016 RMK AO1 SLP166
T00671078 402001033





000
SAUS45 KLKN 230655
MTRP68
METAR KP68 230653Z AUTO 18007KT 08/M07 A3016 RMK AO1 SLP167
T00781072





000
SAUS45 KLKN 230554
MTRP68
METAR KP68 230553Z AUTO 18005KT 08/M08 A3016 RMK AO1 SLP170
T00781078 10189 20050 53005





000
SAUS45 KLKN 230554
MTRP68
METAR KP68 230553Z AUTO 18005KT 08/M08 A3016 RMK AO1 SLP170
T00781078 10189 20050 53005





000
SAUS45 KLKN 230457 COR
MTRP68
METAR KP68 230453Z AUTO 20005KT 07/M07 A3014 RMK AO1 SLP173
T00721072





000
SAUS45 KLKN 230457 COR
MTRP68
METAR KP68 230453Z AUTO 20005KT 07/M07 A3014 RMK AO1 SLP173
T00721072





000
SAUS45 KLKN 230354
MTRP68
METAR KP68 230353Z AUTO 19004KT 07/M07 A3014 RMK AO1 SLP182
T00671067





000
SAUS45 KLKN 230354
MTRP68
METAR KP68 230353Z AUTO 19004KT 07/M07 A3014 RMK AO1 SLP182
T00671067





000
SAUS45 KLKN 230254
MTRP68
METAR KP68 230253Z AUTO 16003KT 08/M06 A3014 RMK AO1 SLP186
T00831056 51002





000
SAUS45 KLKN 230155
MTRP68
METAR KP68 230153Z AUTO 15008KT 10/M05 A3014 RMK AO1 SLP192
T01001050





000
SAUS45 KLKN 230155
MTRP68
METAR KP68 230153Z AUTO 15008KT 10/M05 A3014 RMK AO1 SLP192
T01001050





000
SAUS45 KLKN 230054
MTRP68
METAR KP68 230053Z AUTO 08003KT 14/M03 A3014 RMK AO1 SLP176
T01391033





000
SAUS45 KLKN 230054
MTRP68
METAR KP68 230053Z AUTO 08003KT 14/M03 A3014 RMK AO1 SLP176
T01391033





000
SAUS45 KLKN 222355
MTRP68
METAR KP68 222353Z AUTO 04006KT 19/M05 A3013 RMK AO1 SLP164
T01891050 10200 20117 55002





000
SAUS45 KLKN 222355
MTRP68
METAR KP68 222353Z AUTO 04006KT 19/M05 A3013 RMK AO1 SLP164
T01891050 10200 20117 55002





000
SAUS45 KLKN 222254
MTRP68
METAR KP68 222253Z AUTO VRB03KT 19/M06 A3013 RMK AO1 SLP161
T01941056





000
SAUS45 KLKN 222254
MTRP68
METAR KP68 222253Z AUTO VRB03KT 19/M06 A3013 RMK AO1 SLP161
T01941056





000
SAUS45 KLKN 222154
MTRP68
METAR KP68 222153Z AUTO VRB05KT 19/M06 A3014 RMK AO1 SLP167
T01891056





000
SAUS45 KLKN 222054
MTRP68
METAR KP68 222053Z AUTO 00000KT 18/M06 A3014 RMK AO1 SLP167
T01781061 58016





000
SAUS45 KLKN 221955
MTRP68
METAR KP68 221953Z AUTO 07005KT 16/M06 A3016 RMK AO1 SLP179
T01611056





000
SAUS45 KLKN 221854
MTRP68
METAR KP68 221853Z AUTO 10003KT 15/M07 A3019 RMK AO1 SLP192
T01501067





000
SAUS45 KLKN 221754
MTRP68
METAR KP68 221753Z AUTO 00000KT 12/M08 A3020 RMK AO1 SLP200
T01171083 10122 21033 58003





000
SAUS45 KLKN 221754
MTRP68
METAR KP68 221753Z AUTO 00000KT 12/M08 A3020 RMK AO1 SLP200
T01171083 10122 21033 58003





000
SAUS45 KLKN 221654
MTRP68
METAR KP68 221653Z AUTO 00000KT 09/M09 A3020 RMK AO1 SLP208
T00941089





000
SAUS45 KLKN 221654
MTRP68
METAR KP68 221653Z AUTO 00000KT 09/M09 A3020 RMK AO1 SLP208
T00941089





000
SAUS45 KLKN 221554
MTRP68
METAR KP68 221553Z AUTO 00000KT 04/M09 A3021 RMK AO1 SLP213
T00441089





000
SAUS45 KLKN 221554
MTRP68
METAR KP68 221553Z AUTO 00000KT 04/M09 A3021 RMK AO1 SLP213
T00441089





000
SAUS45 KLKN 221455
MTRP68
METAR KP68 221453Z AUTO 00000KT 01/M11 A3021 RMK AO1 SLP218
T00111106 53013





000
SAUS45 KLKN 221355
MTRP68
METAR KP68 221353Z AUTO 26004KT M03/M12 A3018 RMK AO1 SLP213
T10331117





000
SAUS45 KLKN 221258 COR
MTRP68
METAR KP68 221253Z AUTO 20006KT 00/M10 A3017 RMK AO1 SLP195
T00001100





000
SAUS45 KLKN 221256 COR
MTRP68
METAR KP68 221253Z AUTO 20006KT 00/M10 A3017 RMK AO1 SLP195
T00001100





000
SAUS45 KLKN 221255 COR
MTRP68
METAR KP68 221253Z AUTO 20006KT 00/M10 A3017 RMK AO1 SLP195
T00001100





000
SAUS45 KLKN 221154
MTRP68
METAR KP68 221153Z AUTO 20006KT M01/M10 A3016 RMK AO1 SLP187
T10061100 10011 21022 53006





000
SAUS45 KLKN 221054
MTRP68
METAR KP68 221053Z AUTO 20005KT 01/M11 A3015 RMK AO1 SLP173
T00061106





000
SAUS45 KLKN 220954
MTRP68
METAR KP68 220953Z AUTO 18006KT M01/M11 A3014 RMK AO1 SLP173
T10061111





000
SAUS45 KLKN 220954
MTRP68
METAR KP68 220953Z AUTO 18006KT M01/M11 A3014 RMK AO1 SLP173
T10061111





000
SAUS45 KLKN 220854
MTRP68
METAR KP68 220853Z AUTO 18004KT 01/M11 A3014 RMK AO1 SLP171
T00111111 51005





000
SAUS45 KLKN 220754
MTRP68
METAR KP68 220753Z AUTO 20006KT 00/M11 A3014 RMK AO1 SLP174
T00001111 401671011





000
SAUS45 KLKN 220655
MTRP68
METAR KP68 220653Z AUTO 18005KT M01/M12 A3013 RMK AO1 SLP175
T10111122





000
SAUS45 KLKN 220554
MTRP68
METAR KP68 220553Z AUTO 16003KT 00/M09 A3012 RMK AO1 SLP172
T00001089 10122 20000 53008





000
SAUS45 KLKN 220554
MTRP68
METAR KP68 220553Z AUTO 16003KT 00/M09 A3012 RMK AO1 SLP172
T00001089 10122 20000 53008





000
SAUS45 KLKN 220454
MTRP68
METAR KP68 220453Z AUTO 16004KT 01/M09 A3011 RMK AO1 SLP170
T00061094





000
SAUS45 KLKN 220454
MTRP68
METAR KP68 220453Z AUTO 16004KT 01/M09 A3011 RMK AO1 SLP170
T00061094





000
SAUS45 KLKN 220354
MTRP68
METAR KP68 220353Z AUTO 00000KT 03/M09 A3010 RMK AO1 SLP165
T00281094





000
SAUS45 KLKN 220254
MTRP68
METAR KP68 220253Z AUTO 00000KT 04/M11 A3009 RMK AO1 SLP165
T00441106 53013





000
SAUS45 KLKN 220254
MTRP68
METAR KP68 220253Z AUTO 00000KT 04/M11 A3009 RMK AO1 SLP165
T00441106 53013





000
SAUS45 KLKN 220154
MTRP68
METAR KP68 220153Z AUTO 32005KT 07/M11 A3007 RMK AO1 SLP162
T00721106





000
SAUS45 KLKN 220154
MTRP68
METAR KP68 220153Z AUTO 32005KT 07/M11 A3007 RMK AO1 SLP162
T00721106





000
SAUS45 KLKN 220055
MTRP68
METAR KP68 220053Z AUTO 04006KT 10/M10 A3007 RMK AO1 SLP155
T01001100





000
SAUS45 KLKN 212354
MTRP68
METAR KP68 212353Z AUTO 05011KT 12/M10 A3005 RMK AO1 SLP135
T01221100 10167 20122 55001





000
SAUS45 KLKN 212254
MTRP68
METAR KP68 212253Z AUTO 34009KT 17/M13 A3004 RMK AO1 SLP118
T01671128





000
SAUS45 KLKN 212254
MTRP68
METAR KP68 212253Z AUTO 34009KT 17/M13 A3004 RMK AO1 SLP118
T01671128





000
SAUS45 KLKN 212155
MTRP68
METAR KP68 212153Z AUTO 31010G16KT 17/M13 A3004 RMK AO1 SLP109
T01671128





000
SAUS45 KLKN 212155
MTRP68
METAR KP68 212153Z AUTO 31010G16KT 17/M13 A3004 RMK AO1 SLP109
T01671128





000
SAUS45 KLKN 212054
MTRP68
METAR KP68 212053Z AUTO 29010G18KT 16/M13 A3005 RMK AO1 SLP117
T01561128 56010





000
SAUS45 KLKN 211954
MTRP68
METAR KP68 211953Z AUTO 32015G21KT 15/M13 A3006 RMK AO1 SLP120
T01501128





000
SAUS45 KLKN 211854
MTRP68
METAR KP68 211853Z AUTO 28006KT 14/M13 A3008 RMK AO1 SLP123
T01391133





000
SAUS45 KLKN 211755
MTRP68
METAR KP68 211753Z AUTO 26010KT 13/M11 A3009 RMK AO1 SLP127
T01331106 10139 20017 50000





000
SAUS45 KLKN 211654
MTRP68
METAR KP68 211653Z AUTO 00000KT 12/M08 A3010 RMK AO1 SLP138
T01171083





000
SAUS45 KLKN 211654
MTRP68
METAR KP68 211653Z AUTO 00000KT 12/M08 A3010 RMK AO1 SLP138
T01171083





000
SAUS45 KLKN 211554
MTRP68
METAR KP68 211553Z AUTO 35005KT 10/M02 A3011 RMK AO1 SLP144
T01001022





000
SAUS45 KLKN 211554
MTRP68
METAR KP68 211553Z AUTO 35005KT 10/M02 A3011 RMK AO1 SLP144
T01001022





000
SAUS45 KLKN 211454
MTRP68
METAR KP68 211453Z AUTO 00000KT 07/M02 A3009 RMK AO1 SLP142
T00721022 53015





000
SAUS45 KLKN 211355
MTRP68
METAR KP68 211353Z AUTO 12006KT 02/M03 A3007 RMK AO1 SLP138
T00221033





000
SAUS45 KLKN 211255
MTRP68
METAR KP68 211253Z AUTO 13004KT 02/M03 A3005 RMK AO1 SLP130
T00221033





000
SAUS45 KLKN 211155
MTRP68
METAR KP68 211153Z AUTO 14003KT 06/M02 A3004 RMK AO1 SLP112
T00611017 10167 20061 51032





000
SAUS45 KLKN 211155
MTRP68
METAR KP68 211153Z AUTO 14003KT 06/M02 A3004 RMK AO1 SLP112
T00611017 10167 20061 51032





000
SAUS45 KLKN 211055
MTRP68
METAR KP68 211053Z AUTO 20003KT 09/M02 A3001 RMK AO1 SLP092
T00941017





000
SAUS45 KLKN 211055
MTRP68
METAR KP68 211053Z AUTO 20003KT 09/M02 A3001 RMK AO1 SLP092
T00941017





000
SAUS45 KLKN 210955
MTRP68
METAR KP68 210953Z AUTO 26012KT 13/M02 A2996 RMK AO1 WSHFT 0927
SLP071 T01281017





000
SAUS45 KLKN 210955
MTRP68
METAR KP68 210953Z AUTO 26012KT 13/M02 A2996 RMK AO1 WSHFT 0927
SLP071 T01281017





000
SAUS45 KLKN 210946
MTRP68
SPECI KP68 210944Z AUTO 25014KT 13/M01 A2996 RMK AO1 WSHFT 0927
T01331011





000
SAUS45 KLKN 210855
MTRP68
METAR KP68 210853Z AUTO 19010KT 13/00 A2992 RMK AO1 SLP056 T01280000
53003





000
SAUS45 KLKN 210755
MTRP68
METAR KP68 210753Z AUTO 24010KT 14/00 A2992 RMK AO1 SLP056 T01390000
402330022





000
SAUS45 KLKN 210655
MTRP68
METAR KP68 210653Z AUTO 19011KT 16/M01 A2991 RMK AO1 SLP049
T01561006





000
SAUS45 KLKN 210555
MTRP68
METAR KP68 210553Z AUTO 19018G25KT 17/M01 A2991 RMK AO1 PK WND
19032/0512 SLP050 T01671006 10222 20122 58002





000
SAUS45 KLKN 210455
MTRP68
METAR KP68 210453Z AUTO 16004KT 14/M01 A2993 RMK AO1 SLP063
T01441011





000
SAUS45 KLKN 210455
MTRP68
METAR KP68 210453Z AUTO 16004KT 14/M01 A2993 RMK AO1 SLP063
T01441011





000
SAUS45 KLKN 210355
MTRP68
METAR KP68 210353Z AUTO 08003KT 14/M02 A2992 RMK AO1 SLP067
T01441017





000
SAUS45 KLKN 210355
MTRP68
METAR KP68 210353Z AUTO 08003KT 14/M02 A2992 RMK AO1 SLP067
T01441017





000
SAUS45 KLKN 210255
MTRP68
METAR KP68 210253Z AUTO 20006KT 14/M02 A2992 RMK AO1 SLP079
T01441017 53002





000
SAUS45 KLKN 210255
MTRP68
METAR KP68 210253Z AUTO 20006KT 14/M02 A2992 RMK AO1 SLP079
T01441017 53002





000
SAUS45 KLKN 210155
MTRP68
METAR KP68 210153Z AUTO 19009KT 18/M01 A2992 RMK AO1 SLP081
T01781011





000
SAUS45 KLKN 210155
MTRP68
METAR KP68 210153Z AUTO 19009KT 18/M01 A2992 RMK AO1 SLP081
T01781011





000
SAUS45 KLKN 210054
MTRP68
METAR KP68 210053Z AUTO 20009KT 19/M02 A2991 RMK AO1 PK WND
19026/0003 SLP072 T01941017





000
SAUS45 KLKN 202354
MTRP68
METAR KP68 202353Z AUTO 18019G23KT 22/M02 A2991 RMK AO1 PK WND
17030/2256 SLP066 T02221017 10233 20206 58015





000
SAUS45 KLKN 202254
MTRP68
METAR KP68 202253Z AUTO 17020G24KT 23/M02 A2994 RMK AO1 PK WND
19026/2221 SLP072 T02331017





000
SAUS45 KLKN 202254
MTRP68
METAR KP68 202253Z AUTO 17020G24KT 23/M02 A2994 RMK AO1 PK WND
19026/2221 SLP072 T02331017





000
SAUS45 KLKN 202154
MTRP68
METAR KP68 202153Z AUTO 17018KT 23/M01 A2995 RMK AO1 PK WND
16026/2115 SLP073 T02331011





000
SAUS45 KLKN 202154
MTRP68
METAR KP68 202153Z AUTO 17018KT 23/M01 A2995 RMK AO1 PK WND
16026/2115 SLP073 T02331011





000
SAUS45 KLKN 202054
MTRP68
METAR KP68 202053Z AUTO 18020G28KT 23/M01 A2997 RMK AO1 PK WND
17029/2020 SLP076 T02331011 58022





000
SAUS45 KLKN 201954
MTRP68
METAR KP68 201953Z AUTO 17017G27KT 23/M03 A2999 RMK AO1 PK WND
17030/1908 SLP092 T02281028





000
SAUS45 KLKN 201855
MTRP68
METAR KP68 201853Z AUTO 18021G27KT 22/M01 A3003 RMK AO1 PK WND
18028/1825 SLP105 T02171006





000
SAUS45 KLKN 201754
MTRP68
METAR KP68 201753Z AUTO 16018G23KT 21/M01 A3005 RMK AO1 SLP108
T02061011 10206 20022 58006





000
SAUS45 KLKN 201658 COR
MTRP68
METAR KP68 201653Z AUTO 15014KT 19/01 A3006 RMK AO1 SLP118 T01890011





000
SAUS45 KLKN 201657
MTRP68
REQ RNOMTRP68





000
SAUS45 KLKN 201656 COR
MTRP68
METAR KP68 201653Z AUTO 15014KT 19/01 A3006 RMK AO1 SLP118 T01890011





000
SAUS45 KLKN 201555
MTRP68
METAR KP68 201553Z AUTO 19004KT 16/01 A3007 RMK AO1 SLP118 T01610011





000
SAUS45 KLKN 201455
MTRP68
METAR KP68 201453Z AUTO 17008KT 10/00 A3007 RMK AO1 SLP130 T01000000
53002





000
SAUS45 KLKN 201355
MTRP68
METAR KP68 201353Z AUTO 18004KT 04/M02 A3006 RMK AO1 SLP138
T00391017





000
SAUS45 KLKN 201254
MTRP68
METAR KP68 201253Z AUTO 21005KT 06/M02 A3006 RMK AO1 SLP128
T00561017





000
SAUS45 KLKN 201154
MTRP68
METAR KP68 201153Z AUTO 19006KT 07/M01 A3006 RMK AO1 SLP116
T00721011 10133 20067 53000





000
SAUS45 KLKN 201054
MTRP68
METAR KP68 201053Z AUTO 21008KT 07/M01 A3005 RMK AO1 SLP115
T00721011





000
SAUS45 KLKN 201054
MTRP68
METAR KP68 201053Z AUTO 21008KT 07/M01 A3005 RMK AO1 SLP115
T00721011





    US Dept of Commerce
    National Oceanic and Atmospheric Administration
    National Weather Service
    1325 East West Highway
    Silver Spring, MD 20910
    Page Author: NWS Internet Services Team
Disclaimer
Information Quality
Credits
Glossary
Privacy Policy
Freedom of Information Act (FOIA)
About Us
Career Opportunities